createdAt,value
2023-01-27T00:08:07.284Z,9.20
2023-01-27T04:11:53.065Z,7.43
2023-01-27T04:14:33.967Z,7.78
2023-01-27T04:17:26.520Z,7.70
2023-01-27T04:20:01.084Z,8.32
2023-01-27T04:25:29.485Z,8.02
2023-01-27T04:31:24.271Z,8.15
2023-01-27T04:34:02.371Z,8.25
2023-01-27T04:36:37.521Z,8.82
2023-01-27T04:42:05.539Z,9.43
2023-01-27T04:44:40.607Z,10.15
2023-01-27T04:47:32.164Z,8.15
2023-01-27T04:50:32.123Z,9.00
2023-01-27T04:56:19.129Z,11.23
2023-01-27T04:58:53.753Z,20.23
2023-01-27T05:01:36.211Z,9.20
2023-01-27T05:04:12.149Z,13.23
2023-01-27T05:12:12.692Z,11.25
2023-01-27T05:14:43.782Z,8.45
2023-01-27T05:17:34.508Z,7.15
2023-01-27T05:20:42.279Z,7.20
2023-01-27T05:23:41.615Z,7.45
2023-01-27T05:26:23.022Z,8.50
2023-01-27T05:29:04.316Z,9.93
2023-01-27T05:34:31.354Z,10.40
2023-01-27T05:37:04.463Z,9.75
2023-01-27T05:39:48.412Z,10.90
2023-01-27T05:42:24.344Z,10.80
2023-01-27T05:44:55.140Z,11.05
2023-01-27T05:50:19.492Z,10.68
2023-01-27T06:01:46.790Z,9.38
2023-01-27T06:07:08.826Z,9.02
2023-01-27T06:13:00.877Z,8.75
2023-01-27T06:19:11.537Z,10.30
2023-01-27T06:22:22.574Z,9.40
2023-01-27T06:25:04.710Z,8.80
2023-01-27T06:27:49.464Z,8.20
2023-01-27T06:32:56.784Z,8.82
2023-01-27T06:35:51.585Z,7.72
2023-01-27T06:38:21.445Z,8.23
2023-01-27T06:47:07.296Z,6.97
2023-01-27T06:52:22.589Z,7.65
2023-01-27T06:54:55.950Z,9.15
2023-01-27T06:57:29.075Z,8.63
2023-01-27T07:00:22.321Z,9.07
2023-01-27T07:03:22.588Z,9.75
2023-01-27T07:06:15.381Z,7.97
2023-01-27T07:08:56.371Z,9.18
2023-01-27T07:14:14.043Z,7.78
2023-01-27T07:16:53.674Z,9.10
2023-01-27T07:19:38.187Z,8.75
2023-01-27T07:22:14.461Z,6.63
2023-01-27T07:33:18.349Z,8.80
2023-01-27T07:38:30.119Z,9.50
2023-01-27T07:43:51.514Z,8.40
2023-01-27T07:46:32.096Z,8.90
2023-01-27T07:49:02.230Z,7.80
2023-01-27T07:54:16.355Z,7.53
2023-01-27T07:59:59.298Z,10.98
2023-01-27T08:02:38.216Z,9.15
2023-01-27T08:05:15.531Z,7.78
2023-01-27T08:07:49.268Z,8.93
2023-01-27T08:13:06.768Z,8.25
2023-01-27T08:18:27.059Z,8.20
2023-01-27T08:21:33.632Z,7.25
2023-01-27T08:24:18.467Z,6.85
2023-01-27T08:27:17.097Z,6.95
2023-01-27T08:32:55.260Z,7.40
2023-01-27T08:38:10.355Z,9.30
2023-01-27T08:43:31.353Z,8.32
2023-01-27T08:46:25.197Z,8.98
2023-01-27T08:48:58.323Z,7.72
2023-01-27T08:52:39.447Z,7.68
2023-01-27T09:04:31.533Z,8.18
2023-01-27T09:07:08.661Z,7.93
2023-01-27T09:10:12.658Z,7.53
2023-01-27T09:40:39.617Z,8.00
2023-01-27T09:43:40.250Z,8.05
2023-01-27T09:46:41.368Z,8.48
2023-01-27T09:58:14.584Z,8.95
2023-01-27T10:01:01.632Z,9.10
2023-01-27T10:13:12.537Z,8.77
2023-01-27T10:24:58.969Z,10.48
2023-01-27T10:31:03.743Z,9.35
2023-01-27T12:30:38.271Z,8.20
2023-01-27T13:21:18.274Z,8.48
2023-01-27T13:23:55.342Z,8.02
2023-01-27T13:30:25.001Z,7.18
2023-01-27T13:33:32.657Z,6.30
2023-01-27T13:36:07.565Z,7.30
2023-01-27T13:38:46.507Z,6.43
2023-01-27T13:41:33.508Z,7.03
2023-01-27T13:44:08.901Z,7.22
2023-01-27T13:46:40.665Z,7.25
2023-01-27T13:49:49.263Z,6.82
2023-01-27T13:52:20.652Z,6.15
2023-01-27T13:54:50.557Z,7.68
2023-01-27T13:57:44.984Z,7.55
2023-01-27T14:00:25.339Z,8.73
2023-01-27T14:03:12.016Z,7.25
2023-01-27T14:05:54.779Z,8.60
2023-01-27T14:08:49.539Z,7.95
2023-01-27T14:11:29.390Z,7.40
2023-01-27T14:14:17.359Z,6.78
2023-01-27T14:17:11.134Z,7.65
2023-01-27T14:20:08.951Z,5.65
2023-01-27T14:22:49.163Z,5.85
2023-01-27T14:25:27.302Z,4.85
2023-01-27T14:28:10.196Z,5.10
2023-01-27T14:30:46.267Z,5.45
2023-01-27T14:33:30.561Z,5.10
2023-01-27T14:36:08.622Z,4.38
2023-01-27T14:38:44.900Z,4.00
2023-01-27T14:41:23.522Z,5.43
2023-01-27T14:44:02.397Z,4.63
2023-01-27T14:46:48.600Z,4.78
2023-01-27T14:49:29.231Z,3.80
2023-01-27T14:52:11.976Z,3.95
2023-01-27T14:55:00.935Z,3.63
2023-01-27T14:57:39.874Z,3.38
2023-01-27T15:00:28.135Z,3.10
2023-01-27T15:03:28.551Z,3.70
2023-01-27T15:06:04.478Z,3.70
2023-01-27T15:08:54.524Z,3.88
2023-01-27T15:11:54.562Z,3.35
2023-01-27T15:14:54.783Z,3.58
2023-01-27T15:17:38.322Z,4.45
2023-01-27T15:23:05.915Z,3.90
2023-01-27T15:25:36.709Z,3.15
2023-01-27T15:28:14.814Z,3.80
2023-01-27T15:31:13.284Z,3.40
2023-01-27T15:33:56.313Z,4.13
2023-01-27T15:36:34.119Z,5.15
2023-01-27T15:39:20.265Z,5.20
2023-01-27T15:41:55.198Z,4.95
2023-01-27T15:44:31.451Z,4.95
2023-01-27T15:47:09.563Z,5.10
2023-01-27T15:49:47.435Z,4.47
2023-01-27T15:52:28.880Z,4.95
2023-01-27T15:55:01.018Z,4.55
2023-01-27T15:57:32.758Z,4.32
2023-01-27T16:00:08.605Z,4.63
2023-01-27T16:02:40.267Z,5.35
2023-01-27T16:05:20.807Z,4.88
2023-01-27T16:07:56.229Z,6.00
2023-01-27T16:10:29.479Z,5.82
2023-01-27T16:13:25.958Z,6.20
2023-01-27T16:16:32.287Z,6.40
2023-01-27T16:19:09.912Z,7.47
2023-01-27T16:21:47.718Z,6.43
2023-01-27T16:24:25.387Z,6.57
2023-01-27T16:26:58.996Z,6.90
2023-01-27T16:29:37.109Z,6.88
2023-01-27T16:32:07.825Z,6.90
2023-01-27T16:34:41.181Z,6.70
2023-01-27T16:37:29.330Z,7.22
2023-01-27T16:40:10.048Z,6.68
2023-01-27T16:42:45.660Z,6.80
2023-01-27T16:45:19.828Z,7.45
2023-01-27T16:47:52.518Z,10.20
2023-01-27T16:50:35.285Z,8.25
2023-01-27T16:53:06.799Z,13.48
2023-01-27T16:55:35.243Z,9.82
2023-01-27T16:58:04.238Z,10.43
2023-01-27T17:00:37.229Z,9.85
2023-01-27T17:03:13.414Z,12.02
2023-01-27T17:05:51.999Z,10.63
2023-01-27T17:08:28.295Z,10.50
2023-01-27T18:21:30.714Z,19.60
2023-01-27T18:27:22.406Z,20.05
2023-01-27T18:30:07.669Z,19.25
2023-01-27T18:33:21.355Z,17.27
2023-01-27T18:36:16.142Z,17.52
2023-01-27T18:39:08.789Z,19.25
2023-01-27T18:45:54.116Z,18.77
2023-01-27T18:51:32.715Z,23.60
2023-01-27T18:54:06.241Z,22.85
2023-01-27T18:56:41.502Z,21.70
2023-01-27T19:00:25.252Z,21.45
2023-01-27T19:03:41.060Z,20.92
2023-01-27T19:06:31.413Z,20.95
2023-01-27T19:12:00.292Z,21.33
2023-01-27T19:14:46.299Z,22.08
2023-01-27T19:18:04.084Z,19.73
2023-01-27T19:20:47.644Z,20.55
2023-01-27T19:23:19.051Z,18.02
2023-01-27T19:25:54.168Z,20.15
2023-01-27T19:28:30.926Z,23.25
2023-01-27T19:34:31.767Z,23.42
2023-01-27T19:37:25.276Z,21.13
2023-01-27T19:39:57.088Z,22.35
2023-01-27T19:42:38.623Z,22.40
2023-01-27T19:48:39.728Z,23.88
2023-01-27T19:51:38.734Z,23.75
2023-01-27T19:54:10.184Z,22.35
2023-01-27T19:59:55.358Z,22.40
2023-01-27T20:02:27.623Z,24.33
2023-01-27T20:05:02.001Z,22.10
2023-01-27T20:07:51.955Z,23.13
2023-01-27T20:10:38.031Z,23.77
2023-01-27T20:14:00.940Z,23.73
2023-01-27T20:17:15.772Z,23.23
2023-01-27T20:20:02.677Z,23.73
2023-01-27T20:22:35.229Z,23.77
2023-01-27T20:28:13.384Z,23.30
2023-01-27T20:30:42.890Z,28.15
2023-01-27T20:33:13.082Z,25.52
2023-01-27T20:35:42.554Z,25.20
2023-01-27T20:38:11.776Z,25.38
2023-01-27T20:40:40.519Z,24.95
2023-01-27T20:43:11.547Z,26.23
2023-01-27T20:45:41.409Z,26.23
2023-01-27T20:48:12.444Z,27.88
2023-01-27T20:50:46.481Z,26.40
2023-01-27T20:53:15.192Z,25.38
2023-01-27T20:55:43.556Z,24.85
2023-01-27T20:58:11.772Z,26.70
2023-01-27T21:00:41.548Z,27.27
2023-01-27T21:03:09.952Z,28.27
2023-01-27T21:05:44.419Z,24.83
2023-01-27T21:08:13.071Z,24.55
2023-01-27T21:10:41.402Z,26.20
2023-01-27T21:13:09.698Z,25.23
2023-01-27T21:15:37.989Z,25.40
2023-01-27T21:18:07.725Z,24.77
2023-01-27T21:20:36.008Z,22.80
2023-01-27T21:23:04.283Z,23.52
2023-01-27T21:25:33.514Z,24.20
2023-01-27T21:28:01.871Z,26.33
2023-01-27T21:30:33.416Z,25.98
2023-01-27T21:33:02.245Z,23.83
2023-01-27T21:35:31.983Z,24.20
2023-01-27T21:38:00.340Z,25.23
2023-01-27T21:40:31.727Z,26.02
2023-01-27T21:43:17.321Z,23.48
2023-01-27T21:45:45.615Z,23.60
2023-01-27T21:48:15.097Z,24.88
2023-01-27T21:50:44.833Z,22.95
2023-01-27T21:53:13.157Z,23.90
2023-01-27T21:55:41.479Z,22.60
2023-01-27T21:58:09.914Z,23.05
2023-01-27T22:00:38.648Z,23.80
2023-01-27T22:03:07.016Z,22.50
2023-01-27T22:05:39.202Z,24.15
2023-01-27T22:08:09.790Z,23.45
2023-01-27T22:10:39.126Z,22.30
2023-01-27T22:13:08.381Z,22.90
2023-01-27T22:15:37.205Z,22.38
2023-01-27T22:18:11.903Z,22.63
2023-01-27T22:20:40.206Z,23.58
2023-01-27T22:23:10.002Z,23.20
2023-01-27T22:25:38.321Z,22.35
2023-01-27T22:28:06.650Z,21.83
2023-01-27T22:30:35.097Z,24.00
2023-01-27T22:33:03.451Z,21.42
2023-01-27T22:35:32.159Z,21.15
2023-01-27T22:38:02.031Z,22.25
2023-01-27T22:40:31.872Z,23.67
2023-01-27T22:43:00.137Z,22.92
2023-01-27T22:45:28.617Z,24.40
2023-01-27T22:47:59.137Z,21.25
2023-01-27T22:50:27.825Z,22.67
2023-01-27T22:52:57.120Z,21.65
2023-01-27T22:55:25.539Z,19.90
2023-01-27T22:57:55.421Z,22.20
2023-01-27T23:00:23.923Z,21.63
2023-01-27T23:02:52.218Z,21.75
2023-01-27T23:05:20.677Z,21.85
2023-01-27T23:07:49.000Z,23.30
2023-01-27T23:10:18.220Z,20.98
2023-01-27T23:12:46.653Z,20.13
2023-01-27T23:15:17.228Z,19.73
2023-01-27T23:17:45.780Z,19.80
2023-01-27T23:20:14.588Z,20.25
2023-01-27T23:22:42.977Z,21.20
2023-01-27T23:25:13.169Z,22.58
2023-01-27T23:27:42.747Z,21.58
2023-01-27T23:30:12.919Z,19.48
2023-01-27T23:32:42.641Z,21.33
2023-01-27T23:35:11.420Z,23.50
2023-01-27T23:37:39.784Z,22.15
2023-01-27T23:40:09.395Z,21.35
2023-01-27T23:42:37.687Z,21.98
2023-01-27T23:45:06.794Z,20.23
2023-01-27T23:47:35.407Z,19.50
2023-01-27T23:50:05.760Z,19.65
2023-01-27T23:52:35.468Z,16.25
2023-01-27T23:55:03.868Z,16.30
2023-01-27T23:57:32.196Z,13.70
